East Blacksea — T2ZH3 — position and weather

sailwx.info

Track history (hours):
 
Tides and Currents Weather Stations Pressure Air Temp Water Temp Dewpoint Dewpoint Depression Visibility Wind Speed Wind Dir Waves Ship Positions

East Blacksea

Last reported at 2015-Jul-26 14:32 UTC. Time now 2015-Jul-28 10:25 UTC.
Position N 37°50' E 026°28'.

Length 69 m; draft 2.7 m.

Type: Cargo ship. MMSI: 572341210.

Date/timePositionNaut miles runAvg speedWind from/ knotsBaromVisibWave heightAir tempDewpointWater temp
2015-Jul-26 14:32N 37°50' E 026°28'7 7.2
2015-Jul-26 13:32N 37°43' E 026°32'29 7.2
2015-Jul-26 09:33N 37°19' E 026°51'7 7.3
2015-Jul-26 08:32N 37°13' E 026°56'7 7.4
2015-Jul-26 07:33N 37°07' E 027°01'8 7.8
2015-Jul-26 06:30N 37°00' E 027°07'8 7.9
2015-Jul-26 05:33N 36°57' E 027°15'13 5.6
2015-Jul-26 03:13N 36°45' E 027°23'5 7.3
2015-Jul-26 02:33N 36°41' E 027°21'15 7.5
2015-Jul-26 00:33N 36°35' E 027°38'7 7.1
2015-Jul-25 23:32N 36°32' E 027°46'  
Track history (hours):
 
Tides and Currents Weather Stations Pressure Air Temp Water Temp Dewpoint Dewpoint Depression Visibility Wind Speed Wind Dir Waves Ship Positions

East Blacksea

Last reported at 2015-Jul-26 14:32 UTC. Time now 2015-Jul-28 10:25 UTC.
Position N 37°50' E 026°28'.

Length 69 m; draft 2.7 m.

Type: Cargo ship. MMSI: 572341210.

Date/timePositionNaut miles runAvg speedWind from/ knotsBaromVisibWave heightAir tempDewpointWater temp
2015-Jul-26 14:32N 37°50' E 026°28'7 7.2
2015-Jul-26 13:32N 37°43' E 026°32'29 7.2
2015-Jul-26 09:33N 37°19' E 026°51'7 7.3
2015-Jul-26 08:32N 37°13' E 026°56'7 7.4
2015-Jul-26 07:33N 37°07' E 027°01'8 7.8
2015-Jul-26 06:30N 37°00' E 027°07'8 7.9
2015-Jul-26 05:33N 36°57' E 027°15'13 5.6
2015-Jul-26 03:13N 36°45' E 027°23'5 7.3
2015-Jul-26 02:33N 36°41' E 027°21'15 7.5
2015-Jul-26 00:33N 36°35' E 027°38'7 7.1
2015-Jul-25 23:32N 36°32' E 027°46'  

Dump ship's entire track history